Time;durP1;ratioP1;P1;durP2;ratioP2;P2;SDS_P1;SDS_P2;PMS_P1;PMS_P2;Temp;Humidity;BMP_temperature;BMP_pressure;BME280_temperature;BME280_humidity;BME280_pressure;Samples;Min_cycle;Max_cycle;Signal;HPM_P1;HPM_P2
2021/01/30 00:00:14;;;;;;;2.65;1.00;;;;;;;;;;5044683;28;20033;-78
2021/01/30 00:03:00;;;;;;;4.53;1.15;;;;;;;;;;5046384;28;20025;-79
2021/01/30 00:05:45;;;;;;;6.28;1.52;;;;;;;;;;5045952;28;20024;-79
2021/01/30 00:08:30;;;;;;;2.88;0.90;;;;;;;;;;5047146;28;20016;-78
2021/01/30 00:11:16;;;;;;;2.83;0.85;;;;;;;;;;5043107;28;20028;-78
2021/01/30 00:14:01;;;;;;;2.63;1.23;;;;;;;;;;5048239;28;20501;-79
2021/01/30 00:16:46;;;;;;;2.63;0.82;;;;;;;;;;5045003;28;20032;-79
2021/01/30 00:19:31;;;;;;;3.88;1.10;;;;;;;;;;5046540;28;20035;-79
2021/01/30 00:22:18;;;;;;;4.18;1.00;;;;;;;;;;5048651;28;20052;-79
2021/01/30 00:25:04;;;;;;;4.65;1.40;;;;;;;;;;5044987;28;20025;-79
2021/01/30 00:27:49;;;;;;;2.20;0.82;;;;;;;;;;5047985;28;20013;-80
2021/01/30 00:30:35;;;;;;;2.42;1.00;;;;;;;;;;5040611;28;20068;-79
2021/01/30 00:33:20;;;;;;;1.52;1.00;;;;;;;;;;5048422;28;20029;-79
2021/01/30 00:36:05;;;;;;;2.20;0.80;;;;;;;;;;5041505;28;20463;-79
2021/01/30 00:38:51;;;;;;;2.13;1.00;;;;;;;;;;5048498;28;20021;-79
2021/01/30 00:41:36;;;;;;;3.17;0.93;;;;;;;;;;5043452;28;20071;-78
2021/01/30 00:44:22;;;;;;;3.92;1.00;;;;;;;;;;5046976;28;20021;-79
2021/01/30 00:47:07;;;;;;;3.13;0.80;;;;;;;;;;5041048;28;20075;-79
2021/01/30 00:49:52;;;;;;;3.33;0.93;;;;;;;;;;5046709;28;20039;-79
2021/01/30 00:52:40;;;;;;;3.00;0.80;;;;;;;;;;5059043;28;20025;-78
2021/01/30 00:55:25;;;;;;;2.78;0.70;;;;;;;;;;5048269;28;20048;-79
2021/01/30 00:58:10;;;;;;;1.25;0.70;;;;;;;;;;5045204;28;20024;-79
2021/01/30 01:00:55;;;;;;;2.97;0.80;;;;;;;;;;5042364;28;20018;-78
2021/01/30 01:03:40;;;;;;;1.90;0.80;;;;;;;;;;5045536;28;20051;-78
2021/01/30 01:06:26;;;;;;;2.75;0.80;;;;;;;;;;5046450;28;20017;-78
2021/01/30 01:09:11;;;;;;;0.98;0.70;;;;;;;;;;5047171;28;20028;-78
2021/01/30 01:11:56;;;;;;;2.30;0.90;;;;;;;;;;5045217;28;20479;-78
2021/01/30 01:14:41;;;;;;;2.78;0.90;;;;;;;;;;5048049;28;20032;-78
2021/01/30 01:17:27;;;;;;;1.98;0.68;;;;;;;;;;5043990;28;20025;-78
2021/01/30 01:20:13;;;;;;;2.80;0.90;;;;;;;;;;5047499;28;20064;-78
2021/01/30 01:22:58;;;;;;;1.38;0.68;;;;;;;;;;5044883;28;20365;-78
2021/01/30 01:25:43;;;;;;;2.42;1.00;;;;;;;;;;5045398;28;20492;-78
2021/01/30 01:28:29;;;;;;;1.92;0.93;;;;;;;;;;5044498;28;20028;-78
2021/01/30 01:31:14;;;;;;;6.95;1.10;;;;;;;;;;5044263;28;20108;-78
2021/01/30 01:33:59;;;;;;;2.38;0.80;;;;;;;;;;5041151;28;20021;-79
2021/01/30 01:36:51;;;;;;;1.92;0.68;;;;;;;;;;5042735;28;20134;-79
2021/01/30 01:39:36;;;;;;;1.25;0.80;;;;;;;;;;5037496;28;20391;-78
2021/01/30 01:42:23;;;;;;;1.40;0.70;;;;;;;;;;5047059;28;20033;-79
2021/01/30 01:45:09;;;;;;;4.68;0.80;;;;;;;;;;5044393;28;20025;-78
2021/01/30 01:47:55;;;;;;;2.35;0.90;;;;;;;;;;5045752;28;20540;-79
2021/01/30 01:50:40;;;;;;;3.53;0.80;;;;;;;;;;5046779;28;20602;-79
2021/01/30 01:53:27;;;;;;;4.22;1.00;;;;;;;;;;5049240;28;20044;-78
2021/01/30 01:56:19;;;;;;;2.15;0.85;;;;;;;;;;5047354;28;20025;-78
2021/01/30 01:59:07;;;;;;;3.08;0.82;;;;;;;;;;5050950;28;20012;-78
2021/01/30 02:01:53;;;;;;;1.13;0.80;;;;;;;;;;5049816;28;20020;-79
2021/01/30 02:04:38;;;;;;;2.30;0.70;;;;;;;;;;5050046;28;20016;-79
2021/01/30 02:07:24;;;;;;;1.85;0.68;;;;;;;;;;5047151;28;20012;-79
2021/01/30 02:10:13;;;;;;;2.20;0.80;;;;;;;;;;5053885;28;20029;-78
2021/01/30 02:13:02;;;;;;;3.38;0.80;;;;;;;;;;5052024;28;20024;-78
2021/01/30 02:15:48;;;;;;;1.33;0.60;;;;;;;;;;5048590;28;20111;-77
2021/01/30 02:18:57;;;;;;;3.15;0.80;;;;;;;;;;5053010;28;20038;-78
2021/01/30 02:22:02;;;;;;;1.10;0.60;;;;;;;;;;5047557;28;20076;-78
2021/01/30 02:24:53;;;;;;;0.90;0.50;;;;;;;;;;5049871;28;20021;-78
2021/01/30 02:27:54;;;;;;;1.58;0.82;;;;;;;;;;5056807;28;20012;-79
2021/01/30 02:30:53;;;;;;;2.42;0.70;;;;;;;;;;5047649;28;20098;-78
2021/01/30 02:33:38;;;;;;;1.17;0.60;;;;;;;;;;5047226;28;20032;-78
2021/01/30 02:36:26;;;;;;;2.15;0.60;;;;;;;;;;5045688;28;20029;-78
2021/01/30 02:39:44;;;;;;;2.55;0.60;;;;;;;;;;5047055;28;20035;-78
2021/01/30 02:42:32;;;;;;;0.90;0.65;;;;;;;;;;5013436;28;20041;-78
2021/01/30 02:45:20;;;;;;;0.68;0.50;;;;;;;;;;5051107;28;20471;-78
2021/01/30 02:48:11;;;;;;;0.57;0.57;;;;;;;;;;5051957;28;20419;-78
2021/01/30 02:50:58;;;;;;;1.88;0.70;;;;;;;;;;5056767;28;20041;-78
2021/01/30 02:53:46;;;;;;;0.90;0.50;;;;;;;;;;5051295;28;20388;-77
2021/01/30 02:56:32;;;;;;;0.50;0.50;;;;;;;;;;5047748;28;20031;-78
2021/01/30 02:59:18;;;;;;;2.67;0.90;;;;;;;;;;5054606;28;20613;-78
2021/01/30 03:02:03;;;;;;;0.88;0.77;;;;;;;;;;5039805;28;20027;-78
2021/01/30 03:04:50;;;;;;;0.75;0.73;;;;;;;;;;5055691;28;20020;-77
2021/01/30 03:07:35;;;;;;;0.70;0.63;;;;;;;;;;5052810;28;20024;-78
2021/01/30 03:10:20;;;;;;;1.27;0.65;;;;;;;;;;5056259;28;20043;-78
2021/01/30 03:13:09;;;;;;;1.65;0.82;;;;;;;;;;5053998;28;20070;-78
2021/01/30 03:15:57;;;;;;;0.95;0.73;;;;;;;;;;5054839;28;20029;-78
2021/01/30 03:18:50;;;;;;;2.60;1.02;;;;;;;;;;5051290;28;21149;-78
2021/01/30 03:21:36;;;;;;;4.18;1.40;;;;;;;;;;5052170;28;20023;-78
2021/01/30 03:24:21;;;;;;;1.38;1.08;;;;;;;;;;5049754;28;20078;-77
2021/01/30 03:27:07;;;;;;;1.25;0.90;;;;;;;;;;5050161;28;20024;-78
2021/01/30 03:29:52;;;;;;;3.20;1.08;;;;;;;;;;5048183;28;20032;-77
2021/01/30 03:32:37;;;;;;;7.13;1.92;;;;;;;;;;5047185;28;20021;-77
2021/01/30 03:35:23;;;;;;;1.15;0.90;;;;;;;;;;5055091;28;20028;-77
2021/01/30 03:38:08;;;;;;;1.90;0.90;;;;;;;;;;5052449;28;20043;-78
2021/01/30 03:40:53;;;;;;;1.67;0.80;;;;;;;;;;5051356;28;20040;-77
2021/01/30 03:43:38;;;;;;;1.65;0.75;;;;;;;;;;5042511;28;20057;-79
2021/01/30 03:46:23;;;;;;;1.00;0.80;;;;;;;;;;5054782;28;20020;-78
2021/01/30 03:49:09;;;;;;;2.53;1.20;;;;;;;;;;5065368;28;20024;-79
2021/01/30 03:51:54;;;;;;;1.13;0.80;;;;;;;;;;5054932;28;20386;-78
2021/01/30 03:54:39;;;;;;;1.80;0.75;;;;;;;;;;5068272;28;20404;-77
2021/01/30 03:57:24;;;;;;;2.97;0.95;;;;;;;;;;5052653;28;20425;-80
2021/01/30 04:00:12;;;;;;;1.70;0.80;;;;;;;;;;5051207;28;20111;-78
2021/01/30 04:02:57;;;;;;;1.33;0.65;;;;;;;;;;5051394;28;20079;-77
2021/01/30 04:05:42;;;;;;;1.52;0.60;;;;;;;;;;5051210;28;20292;-78
2021/01/30 04:08:27;;;;;;;2.75;1.20;;;;;;;;;;5053281;28;20059;-78
2021/01/30 04:11:13;;;;;;;2.25;0.90;;;;;;;;;;5055396;28;20115;-78
2021/01/30 04:13:58;;;;;;;4.47;0.80;;;;;;;;;;5050398;28;20070;-77
2021/01/30 04:16:44;;;;;;;0.55;0.52;;;;;;;;;;5055171;28;20009;-78
2021/01/30 04:19:29;;;;;;;1.13;0.75;;;;;;;;;;5048124;28;20020;-78
2021/01/30 04:22:14;;;;;;;1.17;0.88;;;;;;;;;;5054651;28;20382;-79
2021/01/30 04:24:59;;;;;;;1.92;0.63;;;;;;;;;;5052647;28;20021;-79
2021/01/30 04:27:45;;;;;;;4.18;0.70;;;;;;;;;;5050803;28;20047;-78
2021/01/30 04:30:31;;;;;;;3.13;0.60;;;;;;;;;;5045629;28;20415;-79
2021/01/30 04:33:16;;;;;;;2.17;0.98;;;;;;;;;;5054551;28;20086;-78
2021/01/30 04:36:01;;;;;;;1.70;0.60;;;;;;;;;;5052252;28;20023;-79
2021/01/30 04:38:47;;;;;;;2.92;0.70;;;;;;;;;;5052465;28;20043;-78
2021/01/30 04:41:50;;;;;;;3.33;0.73;;;;;;;;;;5057172;28;20016;-78
2021/01/30 04:44:54;;;;;;;0.73;0.60;;;;;;;;;;5050027;28;20016;-78
2021/01/30 04:47:51;;;;;;;6.15;1.10;;;;;;;;;;5054888;28;20375;-78
2021/01/30 04:50:52;;;;;;;8.85;2.38;;;;;;;;;;5062310;28;20550;-78
2021/01/30 04:53:56;;;;;;;4.93;0.82;;;;;;;;;;5053403;28;20048;-79
2021/01/30 04:57:00;;;;;;;2.85;0.93;;;;;;;;;;5047236;28;20028;-79
2021/01/30 05:00:01;;;;;;;4.32;0.88;;;;;;;;;;5049279;28;20522;-78
2021/01/30 05:02:54;;;;;;;3.38;1.63;;;;;;;;;;5051606;28;20035;-79
2021/01/30 05:05:40;;;;;;;4.68;1.20;;;;;;;;;;5050944;28;20040;-79
2021/01/30 05:08:42;;;;;;;4.00;1.30;;;;;;;;;;5054848;28;20620;-79
2021/01/30 05:11:28;;;;;;;3.00;0.93;;;;;;;;;;5050977;28;20402;-79
2021/01/30 05:14:15;;;;;;;4.75;1.20;;;;;;;;;;5046262;28;20466;-79
2021/01/30 05:17:04;;;;;;;6.55;1.10;;;;;;;;;;5049449;28;20054;-79
2021/01/30 05:19:56;;;;;;;5.10;1.27;;;;;;;;;;5052433;28;20016;-79
2021/01/30 05:22:43;;;;;;;4.03;1.40;;;;;;;;;;5051591;28;20435;-80
2021/01/30 05:25:28;;;;;;;5.47;1.42;;;;;;;;;;5052605;28;20082;-79
2021/01/30 05:28:19;;;;;;;6.65;1.95;;;;;;;;;;5053859;28;20099;-80
2021/01/30 05:31:07;;;;;;;5.05;1.10;;;;;;;;;;5053184;28;20115;-79
2021/01/30 05:34:05;;;;;;;9.20;1.48;;;;;;;;;;5046081;28;20047;-79
2021/01/30 05:36:50;;;;;;;3.55;1.27;;;;;;;;;;5064725;28;20020;-80
2021/01/30 05:39:47;;;;;;;6.05;1.30;;;;;;;;;;5053147;28;20024;-79
2021/01/30 05:42:32;;;;;;;7.88;2.00;;;;;;;;;;5050253;28;20025;-79
2021/01/30 05:45:25;;;;;;;13.27;4.95;;;;;;;;;;5050789;28;20029;-78
2021/01/30 05:48:18;;;;;;;10.85;3.80;;;;;;;;;;5050546;28;20095;-78
2021/01/30 05:51:11;;;;;;;6.55;2.05;;;;;;;;;;5061918;28;20033;-78
2021/01/30 05:53:57;;;;;;;7.25;1.67;;;;;;;;;;5052623;28;20071;-79
2021/01/30 05:56:43;;;;;;;9.93;1.90;;;;;;;;;;5049477;28;20024;-79
2021/01/30 05:59:30;;;;;;;9.82;1.77;;;;;;;;;;5049368;28;20191;-78
2021/01/30 06:02:17;;;;;;;10.82;2.10;;;;;;;;;;5052810;28;20057;-79
2021/01/30 06:05:16;;;;;;;7.07;2.30;;;;;;;;;;5050557;28;20509;-79
2021/01/30 06:08:20;;;;;;;9.45;1.80;;;;;;;;;;5049733;28;20021;-78
2021/01/30 06:11:10;;;;;;;10.63;2.45;;;;;;;;;;5051271;28;20024;-78
2021/01/30 06:13:57;;;;;;;13.25;3.05;;;;;;;;;;5050606;28;20066;-79
2021/01/30 06:16:44;;;;;;;16.83;7.97;;;;;;;;;;5053251;28;20017;-79
2021/01/30 06:19:33;;;;;;;10.40;2.08;;;;;;;;;;5050300;28;20016;-79
2021/01/30 06:22:19;;;;;;;;;;;;;;;;;;5054523;28;20032;-78
2021/01/30 06:25:22;;;;;;;6.68;1.75;;;;;;;;;;5048745;28;19991;-79
2021/01/30 06:28:22;;;;;;;8.32;1.88;;;;;;;;;;5052138;28;20071;-79
2021/01/30 06:31:25;;;;;;;10.48;2.45;;;;;;;;;;5051837;28;20037;-79
2021/01/30 06:34:14;;;;;;;14.93;2.30;;;;;;;;;;5046778;28;20150;-78
2021/01/30 06:36:59;;;;;;;8.57;2.30;;;;;;;;;;5049648;28;20021;-78
2021/01/30 06:39:45;;;;;;;10.18;2.58;;;;;;;;;;5048103;28;20040;-79
2021/01/30 06:42:34;;;;;;;8.07;1.92;;;;;;;;;;5045558;28;20024;-79
2021/01/30 06:45:32;;;;;;;7.55;1.90;;;;;;;;;;5043415;28;20494;-79
2021/01/30 06:48:27;;;;;;;16.33;2.70;;;;;;;;;;5051702;28;20021;-79
2021/01/30 06:51:21;;;;;;;15.18;2.47;;;;;;;;;;5057780;28;20094;-79
2021/01/30 06:54:24;;;;;;;9.45;2.33;;;;;;;;;;5048589;28;20045;-79
2021/01/30 06:57:26;;;;;;;10.88;2.80;;;;;;;;;;5065679;28;20028;-79
2021/01/30 07:00:18;;;;;;;9.57;2.22;;;;;;;;;;5051036;28;20107;-79
2021/01/30 07:03:13;;;;;;;11.35;2.60;;;;;;;;;;5052219;28;20032;-79
2021/01/30 07:05:58;;;;;;;16.02;2.78;;;;;;;;;;5048983;28;20021;-79
2021/01/30 07:08:43;;;;;;;12.93;2.95;;;;;;;;;;5052369;28;20108;-79
2021/01/30 07:11:32;;;;;;;14.93;2.42;;;;;;;;;;5049071;28;20063;-79
2021/01/30 07:14:17;;;;;;;8.13;2.10;;;;;;;;;;5050794;28;20279;-79
2021/01/30 07:17:02;;;;;;;12.02;2.40;;;;;;;;;;5047553;28;20029;-78
2021/01/30 07:19:56;;;;;;;12.50;3.55;;;;;;;;;;5051808;28;20208;-79
2021/01/30 07:22:50;;;;;;;12.68;3.33;;;;;;;;;;5049318;28;20028;-79
2021/01/30 07:25:48;;;;;;;9.68;2.92;;;;;;;;;;5045970;28;20017;-79
2021/01/30 07:28:49;;;;;;;11.30;2.90;;;;;;;;;;5047976;28;20039;-79
2021/01/30 07:31:52;;;;;;;11.57;2.60;;;;;;;;;;5037818;28;20031;-79
2021/01/30 07:34:42;;;;;;;10.35;2.53;;;;;;;;;;5054199;28;20021;-79
2021/01/30 07:37:27;;;;;;;9.30;2.80;;;;;;;;;;5047681;28;20020;-79
2021/01/30 07:40:18;;;;;;;9.60;1.98;;;;;;;;;;5053201;28;20021;-80
2021/01/30 07:43:12;;;;;;;12.20;2.97;;;;;;;;;;5050521;28;20055;-79
2021/01/30 07:46:10;;;;;;;9.25;2.88;;;;;;;;;;5055608;28;20020;-79
2021/01/30 07:49:01;;;;;;;9.82;2.22;;;;;;;;;;5053364;28;20025;-79
2021/01/30 07:52:01;;;;;;;14.95;3.58;;;;;;;;;;5057406;28;20074;-80
2021/01/30 07:54:48;;;;;;;11.07;2.78;;;;;;;;;;5049765;28;20115;-79
2021/01/30 07:57:37;;;;;;;10.43;2.40;;;;;;;;;;5052555;28;20031;-80
2021/01/30 08:00:35;;;;;;;10.82;3.10;;;;;;;;;;5053951;28;20040;-79
2021/01/30 08:03:20;;;;;;;12.55;2.53;;;;;;;;;;5050275;28;20111;-79
2021/01/30 08:06:23;;;;;;;11.23;2.47;;;;;;;;;;5050357;28;20758;-79
2021/01/30 08:09:08;;;;;;;9.05;3.25;;;;;;;;;;5049515;28;20033;-79
2021/01/30 08:12:12;;;;;;;7.78;2.80;;;;;;;;;;5055399;28;20054;-79
2021/01/30 08:15:00;;;;;;;10.10;2.80;;;;;;;;;;5044038;28;20478;-79
2021/01/30 08:17:58;;;;;;;14.07;3.83;;;;;;;;;;5054472;28;20107;-79
2021/01/30 08:20:49;;;;;;;13.48;3.00;;;;;;;;;;5052510;28;20024;-79
2021/01/30 08:23:37;;;;;;;9.80;3.00;;;;;;;;;;5050660;28;20185;-78
2021/01/30 08:26:29;;;;;;;14.80;3.15;;;;;;;;;;5052740;28;20033;-79
2021/01/30 08:29:16;;;;;;;11.10;2.47;;;;;;;;;;5044177;28;20138;-79
2021/01/30 08:32:37;;;;;;;9.10;2.45;;;;;;;;;;5054909;28;20024;-79
2021/01/30 08:35:22;;;;;;;10.52;2.75;;;;;;;;;;4970651;28;20022;-79
2021/01/30 08:38:27;;;;;;;18.25;3.85;;;;;;;;;;5038917;28;20021;-79
2021/01/30 08:41:32;;;;;;;7.05;2.15;;;;;;;;;;5052134;28;20104;-79
2021/01/30 08:44:19;;;;;;;11.90;2.97;;;;;;;;;;5063436;28;20090;-79
2021/01/30 08:47:10;;;;;;;11.00;2.65;;;;;;;;;;5055270;28;20013;-80
2021/01/30 08:49:58;;;;;;;17.27;5.20;;;;;;;;;;5052457;28;20085;-79
2021/01/30 08:52:51;;;;;;;12.63;3.83;;;;;;;;;;5048846;28;20059;-79
2021/01/30 08:55:46;;;;;;;11.85;2.85;;;;;;;;;;5043499;28;20044;-80
2021/01/30 08:58:35;;;;;;;15.50;3.10;;;;;;;;;;5044954;28;20021;-79
2021/01/30 09:01:20;;;;;;;9.32;3.13;;;;;;;;;;5032986;28;20574;-79
2021/01/30 09:04:25;;;;;;;10.85;3.40;;;;;;;;;;5047707;28;20055;-79
2021/01/30 09:07:29;;;;;;;11.32;3.25;;;;;;;;;;5043355;28;20025;-80
2021/01/30 09:10:29;;;;;;;11.68;3.45;;;;;;;;;;5044144;28;20021;-79
2021/01/30 09:13:16;;;;;;;12.32;3.13;;;;;;;;;;5045609;28;21037;-79
2021/01/30 09:16:02;;;;;;;14.45;3.03;;;;;;;;;;5043356;28;20032;-79
2021/01/30 09:18:48;;;;;;;21.92;3.38;;;;;;;;;;5056452;28;20673;-79
2021/01/30 09:21:33;;;;;;;12.18;2.50;;;;;;;;;;5044740;28;20032;-79
2021/01/30 09:24:48;;;;;;;8.40;3.05;;;;;;;;;;5046197;28;20132;-79
2021/01/30 09:27:35;;;;;;;10.07;2.95;;;;;;;;;;5044656;28;20073;-79
2021/01/30 09:30:20;;;;;;;9.55;2.67;;;;;;;;;;5027638;28;20028;-79
2021/01/30 09:33:11;;;;;;;14.70;3.25;;;;;;;;;;5043624;28;20788;-78
2021/01/30 09:36:16;;;;;;;9.88;3.10;;;;;;;;;;5042889;28;20033;-78
2021/01/30 09:39:03;;;;;;;11.50;2.65;;;;;;;;;;5043518;28;20171;-79
2021/01/30 09:41:48;;;;;;;13.80;3.88;;;;;;;;;;5042954;28;20028;-79
2021/01/30 09:44:34;;;;;;;12.13;3.53;;;;;;;;;;5045364;28;20013;-79
2021/01/30 09:47:21;;;;;;;9.60;2.85;;;;;;;;;;5040600;28;20032;-78
2021/01/30 09:50:12;;;;;;;12.07;2.88;;;;;;;;;;5047152;28;20504;-79
2021/01/30 09:53:10;;;;;;;25.20;3.42;;;;;;;;;;5042516;28;20067;-78
2021/01/30 09:56:16;;;;;;;12.77;3.08;;;;;;;;;;5044545;28;20028;-79
2021/01/30 09:59:03;;;;;;;17.80;3.28;;;;;;;;;;5038378;28;20475;-78
2021/01/30 10:01:48;;;;;;;9.52;2.80;;;;;;;;;;5045048;28;20021;-77
2021/01/30 10:04:33;;;;;;;15.52;3.35;;;;;;;;;;5043875;28;20379;-78
2021/01/30 10:07:25;;;;;;;13.23;3.40;;;;;;;;;;5046152;28;20494;-78
2021/01/30 10:10:23;;;;;;;11.55;3.47;;;;;;;;;;5041458;28;20035;-79
2021/01/30 10:13:13;;;;;;;11.00;4.10;;;;;;;;;;5040788;28;20067;-79
2021/01/30 10:16:02;;;;;;;10.77;3.60;;;;;;;;;;5047094;28;20017;-79
2021/01/30 10:18:50;;;;;;;12.45;3.00;;;;;;;;;;5044477;28;20681;-78
2021/01/30 10:21:36;;;;;;;12.85;2.50;;;;;;;;;;5045844;28;20536;-78
2021/01/30 10:24:30;;;;;;;15.45;3.45;;;;;;;;;;5044048;28;20052;-78
2021/01/30 10:27:23;;;;;;;16.83;3.83;;;;;;;;;;5046616;28;20104;-78
2021/01/30 10:30:09;;;;;;;9.98;2.92;;;;;;;;;;5057942;28;20029;-79
2021/01/30 10:32:55;;;;;;;9.52;2.78;;;;;;;;;;5042070;28;20379;-77
2021/01/30 10:35:48;;;;;;;12.25;2.90;;;;;;;;;;5041061;28;20032;-78
2021/01/30 10:38:34;;;;;;;10.27;2.78;;;;;;;;;;5045926;28;20387;-78
2021/01/30 10:41:20;;;;;;;13.05;2.70;;;;;;;;;;5046200;28;20104;-77
2021/01/30 10:44:06;;;;;;;14.30;3.80;;;;;;;;;;5037967;28;20375;-78
2021/01/30 10:46:54;;;;;;;11.10;3.88;;;;;;;;;;5043600;28;20466;-78
2021/01/30 10:49:40;;;;;;;13.07;3.72;;;;;;;;;;5043049;28;20032;-78
2021/01/30 10:52:26;;;;;;;18.15;3.97;;;;;;;;;;5043657;28;20446;-78
2021/01/30 10:55:29;;;;;;;11.15;2.67;;;;;;;;;;5043571;28;20094;-78
2021/01/30 10:58:19;;;;;;;16.58;3.40;;;;;;;;;;5046468;28;20020;-77
2021/01/30 11:01:06;;;;;;;14.82;3.25;;;;;;;;;;5023398;28;20018;-77
2021/01/30 11:03:52;;;;;;;15.13;3.40;;;;;;;;;;5041664;28;20021;-77
2021/01/30 11:06:45;;;;;;;12.32;3.40;;;;;;;;;;5035256;28;20467;-78
2021/01/30 11:09:31;;;;;;;10.20;3.17;;;;;;;;;;5046061;28;20036;-78
2021/01/30 11:12:18;;;;;;;13.40;3.67;;;;;;;;;;5044699;28;20056;-78
2021/01/30 11:15:16;;;;;;;16.67;4.68;;;;;;;;;;5046138;28;20025;-77
2021/01/30 11:18:25;;;;;;;15.45;3.42;;;;;;;;;;5046226;28;20368;-78
2021/01/30 11:21:12;;;;;;;11.60;2.88;;;;;;;;;;5044095;28;20076;-79
2021/01/30 11:23:59;;;;;;;11.93;2.80;;;;;;;;;;5045664;28;20017;-78
2021/01/30 11:26:44;;;;;;;13.45;4.13;;;;;;;;;;5046965;28;20036;-78
2021/01/30 11:29:31;;;;;;;11.15;2.75;;;;;;;;;;5049105;28;20021;-78
2021/01/30 11:32:18;;;;;;;17.25;3.42;;;;;;;;;;5045983;28;20467;-79
2021/01/30 11:35:04;;;;;;;10.32;2.80;;;;;;;;;;5047786;28;20032;-78
2021/01/30 11:37:49;;;;;;;9.27;2.55;;;;;;;;;;5046059;28;20028;-77
2021/01/30 11:40:35;;;;;;;12.23;3.40;;;;;;;;;;5061590;28;20029;-78
2021/01/30 11:43:20;;;;;;;14.25;2.65;;;;;;;;;;5045335;28;20107;-78
2021/01/30 11:46:05;;;;;;;11.60;3.15;;;;;;;;;;5047637;28;20021;-78
2021/01/30 11:48:51;;;;;;;12.30;2.45;;;;;;;;;;5049367;28;20057;-77
2021/01/30 11:51:36;;;;;;;14.05;3.13;;;;;;;;;;5044860;28;20056;-77
2021/01/30 11:54:21;;;;;;;13.02;3.22;;;;;;;;;;5049115;28;20072;-79
2021/01/30 11:57:09;;;;;;;13.88;2.70;;;;;;;;;;5046758;28;20028;-80
2021/01/30 11:59:55;;;;;;;10.30;2.50;;;;;;;;;;5043856;28;20119;-79
2021/01/30 12:02:41;;;;;;;16.00;2.97;;;;;;;;;;5046355;28;20029;-79
2021/01/30 12:05:27;;;;;;;17.00;5.63;;;;;;;;;;5044500;28;20017;-79
2021/01/30 12:08:12;;;;;;;12.45;3.72;;;;;;;;;;5045091;28;20112;-79
2021/01/30 12:10:57;;;;;;;12.70;2.97;;;;;;;;;;5043654;28;20101;-79
2021/01/30 12:13:43;;;;;;;16.13;3.25;;;;;;;;;;5044830;28;20025;-77
2021/01/30 12:16:28;;;;;;;14.63;3.05;;;;;;;;;;5062515;28;20026;-77
2021/01/30 12:19:13;;;;;;;13.55;3.58;;;;;;;;;;5046422;28;20498;-77
2021/01/30 12:21:58;;;;;;;12.05;2.85;;;;;;;;;;5062784;28;20048;-79
2021/01/30 12:24:43;;;;;;;9.57;3.08;;;;;;;;;;5042164;28;20451;-78
2021/01/30 12:27:28;;;;;;;9.57;2.78;;;;;;;;;;5048301;28;20460;-77
2021/01/30 12:30:17;;;;;;;19.63;2.75;;;;;;;;;;5060219;28;20465;-78
2021/01/30 12:33:02;;;;;;;16.40;3.05;;;;;;;;;;5046876;28;20075;-78
2021/01/30 12:35:47;;;;;;;15.60;2.60;;;;;;;;;;5047418;28;20607;-79
2021/01/30 12:38:33;;;;;;;12.55;2.85;;;;;;;;;;5060384;28;20032;-79
2021/01/30 12:41:18;;;;;;;11.75;2.65;;;;;;;;;;5048995;28;20033;-79
2021/01/30 12:44:03;;;;;;;11.73;2.65;;;;;;;;;;5046761;28;20135;-80
2021/01/30 12:46:49;;;;;;;9.77;2.75;;;;;;;;;;5044713;28;20013;-80
2021/01/30 12:49:34;;;;;;;14.93;3.42;;;;;;;;;;5042032;28;20419;-79
2021/01/30 12:52:19;;;;;;;13.27;3.03;;;;;;;;;;5046639;28;20394;-77
2021/01/30 12:55:05;;;;;;;14.57;2.60;;;;;;;;;;5046129;28;20069;-77
2021/01/30 12:57:50;;;;;;;16.55;3.10;;;;;;;;;;5061948;28;20017;-78
2021/01/30 13:00:35;;;;;;;11.00;2.47;;;;;;;;;;5042427;28;20115;-78
2021/01/30 13:03:23;;;;;;;12.48;2.75;;;;;;;;;;5048129;28;20847;-77
2021/01/30 13:06:08;;;;;;;7.45;2.42;;;;;;;;;;5041712;28;20021;-80
2021/01/30 13:08:53;;;;;;;14.55;2.72;;;;;;;;;;5038193;28;20032;-79
2021/01/30 13:11:38;;;;;;;10.90;2.70;;;;;;;;;;5038469;28;20074;-79
2021/01/30 13:14:24;;;;;;;8.52;2.65;;;;;;;;;;5048017;28;20020;-79
2021/01/30 13:17:09;;;;;;;11.35;2.63;;;;;;;;;;5046359;28;20044;-79
2021/01/30 13:19:54;;;;;;;13.85;3.30;;;;;;;;;;5059967;28;20548;-79
2021/01/30 13:22:40;;;;;;;11.52;2.90;;;;;;;;;;5046234;28;20364;-78
2021/01/30 13:25:25;;;;;;;8.40;2.38;;;;;;;;;;5039933;28;21742;-79
2021/01/30 13:28:10;;;;;;;13.82;2.63;;;;;;;;;;5047330;28;20020;-79
2021/01/30 13:30:55;;;;;;;10.70;3.28;;;;;;;;;;5041180;28;20100;-79
2021/01/30 13:33:41;;;;;;;9.65;2.63;;;;;;;;;;5044354;28;20086;-78
2021/01/30 13:36:26;;;;;;;5.68;2.50;;;;;;;;;;5043736;28;20395;-79
2021/01/30 13:39:11;;;;;;;7.65;2.20;;;;;;;;;;5044327;28;20531;-79
2021/01/30 13:41:57;;;;;;;12.55;2.65;;;;;;;;;;5037363;28;20040;-79
2021/01/30 13:44:42;;;;;;;11.00;2.95;;;;;;;;;;5045661;28;20356;-78
2021/01/30 13:47:27;;;;;;;9.93;2.42;;;;;;;;;;5044300;28;20017;-79
2021/01/30 13:50:13;;;;;;;15.35;3.53;;;;;;;;;;5046225;28;20021;-79
2021/01/30 13:52:58;;;;;;;8.38;2.75;;;;;;;;;;5048873;28;20466;-79
2021/01/30 13:55:43;;;;;;;12.68;3.05;;;;;;;;;;5049205;28;20013;-79
2021/01/30 13:58:29;;;;;;;10.32;2.30;;;;;;;;;;5051454;28;20479;-79
2021/01/30 14:01:14;;;;;;;11.25;2.75;;;;;;;;;;5053298;28;20098;-79
2021/01/30 14:03:59;;;;;;;5.60;1.83;;;;;;;;;;5052570;28;20016;-79
2021/01/30 14:06:44;;;;;;;6.97;2.47;;;;;;;;;;5051199;28;20027;-79
2021/01/30 14:09:29;;;;;;;9.77;2.85;;;;;;;;;;5046537;28;20082;-79
2021/01/30 14:12:14;;;;;;;7.47;3.25;;;;;;;;;;5054759;28;20032;-79
2021/01/30 14:15:00;;;;;;;7.03;2.20;;;;;;;;;;5053313;28;20538;-79
2021/01/30 14:17:45;;;;;;;12.13;3.65;;;;;;;;;;5049947;28;20221;-79
2021/01/30 14:20:30;;;;;;;6.97;2.60;;;;;;;;;;5048856;28;20031;-79
2021/01/30 14:23:16;;;;;;;9.25;2.30;;;;;;;;;;5061568;28;20024;-79
2021/01/30 14:26:01;;;;;;;8.57;2.10;;;;;;;;;;5048539;28;20467;-78
2021/01/30 14:28:47;;;;;;;8.30;2.50;;;;;;;;;;5050157;28;20033;-79
2021/01/30 14:31:32;;;;;;;7.38;2.00;;;;;;;;;;5052128;28;20051;-78
2021/01/30 14:34:17;;;;;;;9.68;2.10;;;;;;;;;;5049221;28;20052;-78
2021/01/30 14:37:02;;;;;;;8.23;2.53;;;;;;;;;;5051736;28;20082;-79
2021/01/30 14:39:47;;;;;;;7.60;2.03;;;;;;;;;;5051217;28;20024;-79
2021/01/30 14:42:33;;;;;;;4.95;1.90;;;;;;;;;;5048204;28;20028;-79
2021/01/30 14:45:18;;;;;;;9.90;1.98;;;;;;;;;;5050157;28;20040;-78
2021/01/30 14:48:04;;;;;;;7.13;1.73;;;;;;;;;;5037138;28;20619;-78
2021/01/30 14:50:49;;;;;;;5.25;2.00;;;;;;;;;;5055555;28;20082;-79
2021/01/30 14:53:35;;;;;;;5.93;2.08;;;;;;;;;;5053623;28;20989;-79
2021/01/30 14:56:20;;;;;;;7.93;1.80;;;;;;;;;;5062286;28;20055;-79
2021/01/30 14:59:05;;;;;;;8.93;2.00;;;;;;;;;;5064285;28;20112;-79
2021/01/30 15:01:50;;;;;;;9.13;2.50;;;;;;;;;;5060638;28;20047;-79
2021/01/30 15:04:37;;;;;;;6.25;1.80;;;;;;;;;;5054220;28;20021;-79
2021/01/30 15:07:23;;;;;;;8.23;2.05;;;;;;;;;;5064819;28;20490;-78
2021/01/30 15:10:09;;;;;;;6.03;2.67;;;;;;;;;;5058036;28;20074;-79
2021/01/30 15:12:55;;;;;;;10.40;3.35;;;;;;;;;;5057625;28;20033;-79
2021/01/30 15:15:40;;;;;;;4.70;2.00;;;;;;;;;;5058535;28;20020;-79
2021/01/30 15:18:25;;;;;;;4.75;1.58;;;;;;;;;;5056072;28;20111;-79
2021/01/30 15:21:11;;;;;;;7.40;1.92;;;;;;;;;;5057437;28;20498;-79
2021/01/30 15:23:56;;;;;;;5.18;1.75;;;;;;;;;;5060386;28;20024;-78
2021/01/30 15:26:41;;;;;;;9.18;2.33;;;;;;;;;;5056172;28;20522;-78
2021/01/30 15:29:26;;;;;;;8.55;2.25;;;;;;;;;;5055763;28;20529;-78
2021/01/30 15:32:12;;;;;;;7.22;1.80;;;;;;;;;;5054152;28;20024;-78
2021/01/30 15:34:57;;;;;;;5.93;2.13;;;;;;;;;;5060366;28;20496;-81
2021/01/30 15:37:42;;;;;;;6.50;1.92;;;;;;;;;;5055930;28;20036;-77
2021/01/30 15:40:28;;;;;;;8.07;2.22;;;;;;;;;;5053158;28;20024;-79
2021/01/30 15:43:13;;;;;;;5.68;2.08;;;;;;;;;;5060736;28;20483;-79
2021/01/30 15:46:00;;;;;;;6.25;2.45;;;;;;;;;;5051623;28;20025;-79
2021/01/30 15:48:45;;;;;;;7.35;2.47;;;;;;;;;;5041057;28;20564;-79
2021/01/30 15:51:30;;;;;;;7.88;2.35;;;;;;;;;;5049441;28;20424;-79
2021/01/30 15:54:16;;;;;;;6.65;1.98;;;;;;;;;;5048720;28;20115;-78
2021/01/30 15:57:02;;;;;;;7.57;2.42;;;;;;;;;;5045598;28;20021;-79
2021/01/30 15:59:47;;;;;;;9.02;2.22;;;;;;;;;;5042489;28;20516;-78
2021/01/30 16:02:32;;;;;;;5.10;2.30;;;;;;;;;;5045076;28;20037;-78
2021/01/30 16:05:18;;;;;;;9.05;3.40;;;;;;;;;;5048822;28;20025;-78
2021/01/30 16:08:03;;;;;;;5.95;2.30;;;;;;;;;;5044249;28;20111;-78
2021/01/30 16:10:49;;;;;;;7.60;2.40;;;;;;;;;;5043615;28;20121;-78
2021/01/30 16:13:34;;;;;;;8.45;2.03;;;;;;;;;;5046363;28;20029;-79
2021/01/30 16:16:19;;;;;;;6.15;2.20;;;;;;;;;;5044381;28;20029;-79
2021/01/30 16:19:05;;;;;;;5.10;2.00;;;;;;;;;;5040972;28;20021;-78
2021/01/30 16:21:51;;;;;;;4.85;1.90;;;;;;;;;;5048937;28;20021;-78
2021/01/30 16:24:36;;;;;;;8.90;2.20;;;;;;;;;;5049173;28;20029;-78
2021/01/30 16:27:21;;;;;;;8.07;2.72;;;;;;;;;;5044562;28;20009;-77
2021/01/30 16:30:08;;;;;;;5.90;2.25;;;;;;;;;;5062563;28;20017;-79
2021/01/30 16:32:53;;;;;;;7.57;2.58;;;;;;;;;;5043837;28;20032;-77
2021/01/30 16:35:38;;;;;;;10.43;2.78;;;;;;;;;;5041744;28;20519;-80
2021/01/30 16:38:23;;;;;;;7.25;2.85;;;;;;;;;;5053438;28;20045;-80
2021/01/30 16:41:09;;;;;;;5.75;2.58;;;;;;;;;;5045477;28;20033;-79
2021/01/30 16:43:54;;;;;;;6.47;2.20;;;;;;;;;;5058665;28;20059;-80